sensor_id;sensor_type;location;lat;lon;timestamp;P1;durP1;ratioP1;P2;durP2;ratioP2
53040;SDS011;39326;42.650;23.248;2023-04-09T00:00:40;21.67;;;19.67;;
53040;SDS011;39326;42.650;23.248;2023-04-09T00:03:07;22.00;;;20.00;;
53040;SDS011;39326;42.650;23.248;2023-04-09T00:05:36;22.63;;;20.57;;
53040;SDS011;39326;42.650;23.248;2023-04-09T00:08:03;22.57;;;20.53;;
53040;SDS011;39326;42.650;23.248;2023-04-09T00:10:30;21.43;;;19.43;;
53040;SDS011;39326;42.650;23.248;2023-04-09T00:12:56;20.73;;;18.73;;
53040;SDS011;39326;42.650;23.248;2023-04-09T00:15:22;18.97;;;17.23;;
53040;SDS011;39326;42.650;23.248;2023-04-09T00:17:48;19.27;;;17.67;;
53040;SDS011;39326;42.650;23.248;2023-04-09T00:20:15;19.03;;;17.37;;
53040;SDS011;39326;42.650;23.248;2023-04-09T00:22:41;16.93;;;15.43;;
53040;SDS011;39326;42.650;23.248;2023-04-09T00:25:07;15.47;;;13.97;;
53040;SDS011;39326;42.650;23.248;2023-04-09T00:27:33;17.13;;;15.67;;
53040;SDS011;39326;42.650;23.248;2023-04-09T00:29:59;18.53;;;16.83;;
53040;SDS011;39326;42.650;23.248;2023-04-09T00:32:25;17.37;;;15.87;;
53040;SDS011;39326;42.650;23.248;2023-04-09T00:34:52;17.67;;;16.07;;
53040;SDS011;39326;42.650;23.248;2023-04-09T00:37:18;17.17;;;15.67;;
53040;SDS011;39326;42.650;23.248;2023-04-09T00:39:44;18.20;;;16.53;;
53040;SDS011;39326;42.650;23.248;2023-04-09T00:42:11;17.90;;;16.23;;
53040;SDS011;39326;42.650;23.248;2023-04-09T00:44:37;17.37;;;15.73;;
53040;SDS011;39326;42.650;23.248;2023-04-09T00:47:03;17.20;;;15.70;;
53040;SDS011;39326;42.650;23.248;2023-04-09T00:49:29;17.87;;;16.27;;
53040;SDS011;39326;42.650;23.248;2023-04-09T00:51:55;17.80;;;16.10;;
53040;SDS011;39326;42.650;23.248;2023-04-09T00:54:21;16.03;;;14.63;;
53040;SDS011;39326;42.650;23.248;2023-04-09T00:56:47;15.63;;;14.23;;
53040;SDS011;39326;42.650;23.248;2023-04-09T00:59:14;16.13;;;14.73;;
53040;SDS011;39326;42.650;23.248;2023-04-09T01:01:41;16.80;;;15.30;;
53040;SDS011;39326;42.650;23.248;2023-04-09T01:04:07;16.93;;;15.40;;
53040;SDS011;39326;42.650;23.248;2023-04-09T01:09:36;15.77;;;14.37;;
53040;SDS011;39326;42.650;23.248;2023-04-09T01:17:12;15.43;;;14.07;;
53040;SDS011;39326;42.650;23.248;2023-04-09T01:19:50;16.00;;;14.60;;
53040;SDS011;39326;42.650;23.248;2023-04-09T01:28:41;14.10;;;12.90;;
53040;SDS011;39326;42.650;23.248;2023-04-09T01:31:10;17.50;;;15.80;;
53040;SDS011;39326;42.650;23.248;2023-04-09T01:33:38;16.83;;;15.33;;
53040;SDS011;39326;42.650;23.248;2023-04-09T01:36:05;18.20;;;16.60;;
53040;SDS011;39326;42.650;23.248;2023-04-09T01:38:32;16.67;;;15.27;;
53040;SDS011;39326;42.650;23.248;2023-04-09T01:41:00;20.37;;;18.57;;
53040;SDS011;39326;42.650;23.248;2023-04-09T01:43:28;20.53;;;18.73;;
53040;SDS011;39326;42.650;23.248;2023-04-09T01:45:56;19.23;;;17.47;;
53040;SDS011;39326;42.650;23.248;2023-04-09T01:48:24;20.90;;;19.00;;
53040;SDS011;39326;42.650;23.248;2023-04-09T01:50:51;20.47;;;18.60;;
53040;SDS011;39326;42.650;23.248;2023-04-09T01:53:18;18.27;;;16.57;;
53040;SDS011;39326;42.650;23.248;2023-04-09T01:55:46;18.50;;;16.83;;
53040;SDS011;39326;42.650;23.248;2023-04-09T01:58:12;18.30;;;16.63;;
53040;SDS011;39326;42.650;23.248;2023-04-09T02:00:38;19.30;;;17.50;;
53040;SDS011;39326;42.650;23.248;2023-04-09T02:03:20;18.73;;;17.07;;
53040;SDS011;39326;42.650;23.248;2023-04-09T02:05:54;19.60;;;17.90;;
53040;SDS011;39326;42.650;23.248;2023-04-09T02:08:27;17.90;;;16.20;;
53040;SDS011;39326;42.650;23.248;2023-04-09T02:10:55;16.77;;;15.27;;
53040;SDS011;39326;42.650;23.248;2023-04-09T02:13:23;20.87;;;18.93;;
53040;SDS011;39326;42.650;23.248;2023-04-09T02:15:51;19.40;;;17.60;;
53040;SDS011;39326;42.650;23.248;2023-04-09T02:18:25;18.80;;;17.10;;
53040;SDS011;39326;42.650;23.248;2023-04-09T02:20:52;19.50;;;17.70;;
53040;SDS011;39326;42.650;23.248;2023-04-09T02:23:19;19.53;;;17.63;;
53040;SDS011;39326;42.650;23.248;2023-04-09T02:25:45;22.33;;;20.13;;
53040;SDS011;39326;42.650;23.248;2023-04-09T02:28:11;21.13;;;19.23;;
53040;SDS011;39326;42.650;23.248;2023-04-09T02:30:37;20.73;;;18.67;;
53040;SDS011;39326;42.650;23.248;2023-04-09T02:33:02;19.20;;;17.40;;
53040;SDS011;39326;42.650;23.248;2023-04-09T02:35:28;19.30;;;17.50;;
53040;SDS011;39326;42.650;23.248;2023-04-09T02:37:54;18.60;;;16.90;;
53040;SDS011;39326;42.650;23.248;2023-04-09T02:40:20;20.77;;;18.90;;
53040;SDS011;39326;42.650;23.248;2023-04-09T02:42:45;20.53;;;18.43;;
53040;SDS011;39326;42.650;23.248;2023-04-09T02:45:11;19.77;;;17.97;;
53040;SDS011;39326;42.650;23.248;2023-04-09T02:47:37;20.10;;;18.20;;
53040;SDS011;39326;42.650;23.248;2023-04-09T02:50:04;18.70;;;16.90;;
53040;SDS011;39326;42.650;23.248;2023-04-09T02:52:30;17.67;;;16.00;;
53040;SDS011;39326;42.650;23.248;2023-04-09T02:54:56;18.80;;;17.00;;
53040;SDS011;39326;42.650;23.248;2023-04-09T02:57:22;18.07;;;16.37;;
53040;SDS011;39326;42.650;23.248;2023-04-09T02:59:48;17.77;;;16.17;;
53040;SDS011;39326;42.650;23.248;2023-04-09T03:02:13;19.20;;;17.40;;
53040;SDS011;39326;42.650;23.248;2023-04-09T03:04:39;21.63;;;19.63;;
53040;SDS011;39326;42.650;23.248;2023-04-09T03:07:05;21.00;;;19.00;;
53040;SDS011;39326;42.650;23.248;2023-04-09T03:09:32;21.10;;;19.07;;
53040;SDS011;39326;42.650;23.248;2023-04-09T03:11:58;19.57;;;17.77;;
53040;SDS011;39326;42.650;23.248;2023-04-09T03:14:24;19.97;;;17.87;;
53040;SDS011;39326;42.650;23.248;2023-04-09T03:16:50;17.27;;;15.73;;
53040;SDS011;39326;42.650;23.248;2023-04-09T03:19:16;16.70;;;15.20;;
53040;SDS011;39326;42.650;23.248;2023-04-09T03:21:42;16.13;;;14.73;;
53040;SDS011;39326;42.650;23.248;2023-04-09T03:24:08;16.60;;;15.07;;
53040;SDS011;39326;42.650;23.248;2023-04-09T03:26:33;16.43;;;14.83;;
53040;SDS011;39326;42.650;23.248;2023-04-09T03:29:03;14.37;;;13.07;;
53040;SDS011;39326;42.650;23.248;2023-04-09T03:31:29;15.13;;;13.70;;
53040;SDS011;39326;42.650;23.248;2023-04-09T03:33:55;16.20;;;14.70;;
53040;SDS011;39326;42.650;23.248;2023-04-09T03:36:21;16.40;;;14.90;;
53040;SDS011;39326;42.650;23.248;2023-04-09T03:38:47;14.37;;;13.07;;
53040;SDS011;39326;42.650;23.248;2023-04-09T03:41:13;15.73;;;14.23;;
53040;SDS011;39326;42.650;23.248;2023-04-09T03:43:39;15.23;;;13.83;;
53040;SDS011;39326;42.650;23.248;2023-04-09T03:46:12;16.53;;;15.03;;
53040;SDS011;39326;42.650;23.248;2023-04-09T03:48:39;15.07;;;13.77;;
53040;SDS011;39326;42.650;23.248;2023-04-09T03:51:05;14.97;;;13.67;;
53040;SDS011;39326;42.650;23.248;2023-04-09T03:53:31;14.90;;;13.50;;
53040;SDS011;39326;42.650;23.248;2023-04-09T03:55:57;15.47;;;13.93;;
53040;SDS011;39326;42.650;23.248;2023-04-09T03:58:23;15.67;;;14.17;;
53040;SDS011;39326;42.650;23.248;2023-04-09T04:00:49;14.20;;;12.87;;
53040;SDS011;39326;42.650;23.248;2023-04-09T04:03:15;13.73;;;12.53;;
53040;SDS011;39326;42.650;23.248;2023-04-09T04:05:41;14.73;;;13.43;;
53040;SDS011;39326;42.650;23.248;2023-04-09T04:08:06;15.90;;;14.20;;
53040;SDS011;39326;42.650;23.248;2023-04-09T04:10:33;16.40;;;14.80;;
53040;SDS011;39326;42.650;23.248;2023-04-09T04:12:59;15.70;;;14.20;;
53040;SDS011;39326;42.650;23.248;2023-04-09T04:15:26;14.70;;;12.83;;
53040;SDS011;39326;42.650;23.248;2023-04-09T04:17:53;15.00;;;13.70;;
53040;SDS011;39326;42.650;23.248;2023-04-09T04:20:19;17.30;;;15.67;;
53040;SDS011;39326;42.650;23.248;2023-04-09T04:22:45;18.57;;;16.77;;
53040;SDS011;39326;42.650;23.248;2023-04-09T04:25:11;16.10;;;14.57;;
53040;SDS011;39326;42.650;23.248;2023-04-09T04:27:40;20.57;;;18.67;;
53040;SDS011;39326;42.650;23.248;2023-04-09T04:30:06;31.03;;;28.20;;
53040;SDS011;39326;42.650;23.248;2023-04-09T04:32:33;25.53;;;23.07;;
53040;SDS011;39326;42.650;23.248;2023-04-09T04:34:59;25.40;;;23.13;;
53040;SDS011;39326;42.650;23.248;2023-04-09T04:37:25;21.17;;;19.30;;
53040;SDS011;39326;42.650;23.248;2023-04-09T04:39:51;24.23;;;22.03;;
53040;SDS011;39326;42.650;23.248;2023-04-09T04:42:17;22.83;;;20.83;;
53040;SDS011;39326;42.650;23.248;2023-04-09T04:44:43;22.83;;;20.73;;
53040;SDS011;39326;42.650;23.248;2023-04-09T04:47:09;22.87;;;20.97;;
53040;SDS011;39326;42.650;23.248;2023-04-09T04:49:34;21.03;;;19.17;;
53040;SDS011;39326;42.650;23.248;2023-04-09T04:52:00;20.03;;;18.20;;
53040;SDS011;39326;42.650;23.248;2023-04-09T04:54:26;18.60;;;17.00;;
53040;SDS011;39326;42.650;23.248;2023-04-09T04:56:52;18.70;;;17.10;;
53040;SDS011;39326;42.650;23.248;2023-04-09T04:59:18;19.00;;;17.27;;
53040;SDS011;39326;42.650;23.248;2023-04-09T05:01:43;18.93;;;17.03;;
53040;SDS011;39326;42.650;23.248;2023-04-09T05:04:10;18.40;;;16.70;;
53040;SDS011;39326;42.650;23.248;2023-04-09T05:06:36;18.83;;;17.13;;
53040;SDS011;39326;42.650;23.248;2023-04-09T05:09:02;18.93;;;17.23;;
53040;SDS011;39326;42.650;23.248;2023-04-09T05:11:28;19.40;;;17.50;;
53040;SDS011;39326;42.650;23.248;2023-04-09T05:13:53;19.87;;;18.07;;
53040;SDS011;39326;42.650;23.248;2023-04-09T05:16:20;17.83;;;16.23;;
53040;SDS011;39326;42.650;23.248;2023-04-09T05:18:46;18.17;;;16.47;;
53040;SDS011;39326;42.650;23.248;2023-04-09T05:21:12;18.93;;;17.23;;
53040;SDS011;39326;42.650;23.248;2023-04-09T05:23:38;18.93;;;17.03;;
53040;SDS011;39326;42.650;23.248;2023-04-09T05:26:03;16.80;;;15.23;;
53040;SDS011;39326;42.650;23.248;2023-04-09T05:28:29;19.13;;;17.37;;
53040;SDS011;39326;42.650;23.248;2023-04-09T05:30:55;18.83;;;17.03;;
53040;SDS011;39326;42.650;23.248;2023-04-09T05:33:21;19.60;;;17.70;;
53040;SDS011;39326;42.650;23.248;2023-04-09T05:35:47;21.70;;;19.70;;
53040;SDS011;39326;42.650;23.248;2023-04-09T05:38:14;21.13;;;19.07;;
53040;SDS011;39326;42.650;23.248;2023-04-09T05:40:40;21.00;;;18.90;;
53040;SDS011;39326;42.650;23.248;2023-04-09T05:43:08;21.27;;;19.07;;
53040;SDS011;39326;42.650;23.248;2023-04-09T05:45:34;21.70;;;19.60;;
53040;SDS011;39326;42.650;23.248;2023-04-09T05:48:00;20.50;;;18.40;;
53040;SDS011;39326;42.650;23.248;2023-04-09T05:50:26;21.90;;;19.70;;
53040;SDS011;39326;42.650;23.248;2023-04-09T05:52:52;20.53;;;18.50;;
53040;SDS011;39326;42.650;23.248;2023-04-09T05:55:18;24.17;;;21.77;;
53040;SDS011;39326;42.650;23.248;2023-04-09T05:57:45;20.37;;;18.10;;
53040;SDS011;39326;42.650;23.248;2023-04-09T06:00:11;24.00;;;21.47;;
53040;SDS011;39326;42.650;23.248;2023-04-09T06:02:38;23.77;;;21.37;;
53040;SDS011;39326;42.650;23.248;2023-04-09T06:05:04;14.70;;;12.73;;
53040;SDS011;39326;42.650;23.248;2023-04-09T06:07:31;19.93;;;17.83;;
53040;SDS011;39326;42.650;23.248;2023-04-09T06:09:57;21.30;;;19.20;;
53040;SDS011;39326;42.650;23.248;2023-04-09T06:12:22;19.63;;;17.73;;
53040;SDS011;39326;42.650;23.248;2023-04-09T06:14:48;21.27;;;19.17;;
53040;SDS011;39326;42.650;23.248;2023-04-09T06:17:14;13.97;;;12.57;;
53040;SDS011;39326;42.650;23.248;2023-04-09T06:19:40;21.23;;;19.23;;
53040;SDS011;39326;42.650;23.248;2023-04-09T06:22:08;19.83;;;17.93;;
53040;SDS011;39326;42.650;23.248;2023-04-09T06:24:35;16.47;;;14.90;;
53040;SDS011;39326;42.650;23.248;2023-04-09T06:27:01;15.47;;;13.00;;
53040;SDS011;39326;42.650;23.248;2023-04-09T06:29:27;16.70;;;15.07;;
53040;SDS011;39326;42.650;23.248;2023-04-09T06:31:53;18.27;;;16.60;;
53040;SDS011;39326;42.650;23.248;2023-04-09T06:34:19;16.40;;;14.70;;
53040;SDS011;39326;42.650;23.248;2023-04-09T06:36:45;15.00;;;13.60;;
53040;SDS011;39326;42.650;23.248;2023-04-09T06:39:11;15.93;;;14.43;;
53040;SDS011;39326;42.650;23.248;2023-04-09T06:41:37;16.43;;;14.90;;
53040;SDS011;39326;42.650;23.248;2023-04-09T06:44:03;17.63;;;16.03;;
53040;SDS011;39326;42.650;23.248;2023-04-09T06:46:29;16.83;;;15.27;;
53040;SDS011;39326;42.650;23.248;2023-04-09T06:48:55;17.27;;;15.67;;
53040;SDS011;39326;42.650;23.248;2023-04-09T06:51:21;16.07;;;14.67;;
53040;SDS011;39326;42.650;23.248;2023-04-09T06:53:47;15.67;;;14.27;;
53040;SDS011;39326;42.650;23.248;2023-04-09T06:56:13;14.63;;;13.33;;
53040;SDS011;39326;42.650;23.248;2023-04-09T06:58:40;15.70;;;14.13;;
53040;SDS011;39326;42.650;23.248;2023-04-09T07:01:05;15.87;;;14.27;;
53040;SDS011;39326;42.650;23.248;2023-04-09T07:03:32;15.60;;;13.93;;
53040;SDS011;39326;42.650;23.248;2023-04-09T07:05:57;16.47;;;14.73;;
53040;SDS011;39326;42.650;23.248;2023-04-09T07:08:23;14.67;;;13.17;;
53040;SDS011;39326;42.650;23.248;2023-04-09T07:10:50;15.07;;;13.67;;
53040;SDS011;39326;42.650;23.248;2023-04-09T07:13:16;14.23;;;12.83;;
53040;SDS011;39326;42.650;23.248;2023-04-09T07:15:42;13.93;;;12.53;;
53040;SDS011;39326;42.650;23.248;2023-04-09T07:18:07;14.63;;;13.23;;
53040;SDS011;39326;42.650;23.248;2023-04-09T07:20:33;12.90;;;11.80;;
53040;SDS011;39326;42.650;23.248;2023-04-09T07:22:59;13.53;;;12.27;;
53040;SDS011;39326;42.650;23.248;2023-04-09T07:25:25;12.00;;;10.90;;
53040;SDS011;39326;42.650;23.248;2023-04-09T07:27:51;11.93;;;10.83;;
53040;SDS011;39326;42.650;23.248;2023-04-09T07:30:17;11.23;;;10.13;;
53040;SDS011;39326;42.650;23.248;2023-04-09T07:32:43;11.83;;;10.83;;
53040;SDS011;39326;42.650;23.248;2023-04-09T07:35:08;10.67;;;9.73;;
53040;SDS011;39326;42.650;23.248;2023-04-09T07:37:35;9.23;;;8.33;;
53040;SDS011;39326;42.650;23.248;2023-04-09T07:40:00;11.60;;;10.60;;
53040;SDS011;39326;42.650;23.248;2023-04-09T07:42:28;11.47;;;10.47;;
53040;SDS011;39326;42.650;23.248;2023-04-09T07:44:54;11.17;;;10.13;;
53040;SDS011;39326;42.650;23.248;2023-04-09T07:47:20;12.03;;;10.87;;
53040;SDS011;39326;42.650;23.248;2023-04-09T07:49:47;11.97;;;10.97;;
53040;SDS011;39326;42.650;23.248;2023-04-09T07:52:12;11.13;;;10.13;;
53040;SDS011;39326;42.650;23.248;2023-04-09T07:54:37;10.73;;;9.83;;
53040;SDS011;39326;42.650;23.248;2023-04-09T07:57:03;10.90;;;9.93;;
53040;SDS011;39326;42.650;23.248;2023-04-09T07:59:28;10.67;;;9.77;;
53040;SDS011;39326;42.650;23.248;2023-04-09T08:01:55;9.97;;;9.17;;
53040;SDS011;39326;42.650;23.248;2023-04-09T08:04:21;9.73;;;8.93;;
53040;SDS011;39326;42.650;23.248;2023-04-09T08:06:46;10.57;;;9.67;;
53040;SDS011;39326;42.650;23.248;2023-04-09T08:09:14;11.77;;;10.83;;
53040;SDS011;39326;42.650;23.248;2023-04-09T08:11:40;10.60;;;9.70;;
53040;SDS011;39326;42.650;23.248;2023-04-09T08:14:06;10.50;;;9.70;;
53040;SDS011;39326;42.650;23.248;2023-04-09T08:16:36;9.13;;;7.77;;
53040;SDS011;39326;42.650;23.248;2023-04-09T08:19:03;10.07;;;9.17;;
53040;SDS011;39326;42.650;23.248;2023-04-09T08:21:28;10.40;;;9.33;;
53040;SDS011;39326;42.650;23.248;2023-04-09T08:23:53;10.67;;;9.80;;
53040;SDS011;39326;42.650;23.248;2023-04-09T08:26:23;10.50;;;9.60;;
53040;SDS011;39326;42.650;23.248;2023-04-09T08:28:49;10.13;;;9.33;;
53040;SDS011;39326;42.650;23.248;2023-04-09T08:31:16;10.80;;;9.90;;
53040;SDS011;39326;42.650;23.248;2023-04-09T08:33:41;10.00;;;9.20;;
53040;SDS011;39326;42.650;23.248;2023-04-09T08:36:07;10.63;;;9.73;;
53040;SDS011;39326;42.650;23.248;2023-04-09T08:38:33;8.90;;;8.10;;
53040;SDS011;39326;42.650;23.248;2023-04-09T08:40:58;10.33;;;9.47;;
53040;SDS011;39326;42.650;23.248;2023-04-09T08:43:24;11.33;;;10.17;;
53040;SDS011;39326;42.650;23.248;2023-04-09T08:45:51;11.10;;;10.20;;
53040;SDS011;39326;42.650;23.248;2023-04-09T08:48:21;10.33;;;9.37;;
53040;SDS011;39326;42.650;23.248;2023-04-09T08:50:48;11.63;;;10.73;;
53040;SDS011;39326;42.650;23.248;2023-04-09T08:53:14;10.87;;;9.97;;
53040;SDS011;39326;42.650;23.248;2023-04-09T08:55:43;11.13;;;10.23;;
53040;SDS011;39326;42.650;23.248;2023-04-09T08:58:09;10.60;;;9.70;;
53040;SDS011;39326;42.650;23.248;2023-04-09T09:00:35;11.80;;;10.80;;
53040;SDS011;39326;42.650;23.248;2023-04-09T09:03:04;10.80;;;9.70;;
53040;SDS011;39326;42.650;23.248;2023-04-09T09:08:01;12.90;;;11.80;;
53040;SDS011;39326;42.650;23.248;2023-04-09T09:10:40;11.60;;;10.60;;
53040;SDS011;39326;42.650;23.248;2023-04-09T09:13:20;11.07;;;10.17;;
53040;SDS011;39326;42.650;23.248;2023-04-09T09:15:48;11.47;;;10.53;;
53040;SDS011;39326;42.650;23.248;2023-04-09T09:18:17;10.83;;;9.83;;
53040;SDS011;39326;42.650;23.248;2023-04-09T09:20:43;10.73;;;9.73;;
53040;SDS011;39326;42.650;23.248;2023-04-09T09:23:08;11.77;;;10.87;;
53040;SDS011;39326;42.650;23.248;2023-04-09T09:25:37;12.07;;;11.00;;
53040;SDS011;39326;42.650;23.248;2023-04-09T09:28:07;10.50;;;9.60;;
53040;SDS011;39326;42.650;23.248;2023-04-09T09:30:37;10.83;;;9.80;;
53040;SDS011;39326;42.650;23.248;2023-04-09T09:38:13;9.53;;;8.63;;
53040;SDS011;39326;42.650;23.248;2023-04-09T09:40:40;10.80;;;9.90;;
53040;SDS011;39326;42.650;23.248;2023-04-09T09:43:06;13.03;;;11.83;;
53040;SDS011;39326;42.650;23.248;2023-04-09T09:45:31;12.13;;;11.03;;
53040;SDS011;39326;42.650;23.248;2023-04-09T09:47:57;11.47;;;10.47;;
53040;SDS011;39326;42.650;23.248;2023-04-09T09:50:23;10.60;;;9.70;;
53040;SDS011;39326;42.650;23.248;2023-04-09T09:52:49;11.33;;;10.33;;
53040;SDS011;39326;42.650;23.248;2023-04-09T09:55:16;10.93;;;10.03;;
53040;SDS011;39326;42.650;23.248;2023-04-09T09:57:43;10.30;;;9.50;;
53040;SDS011;39326;42.650;23.248;2023-04-09T10:00:11;10.87;;;9.87;;
53040;SDS011;39326;42.650;23.248;2023-04-09T10:02:47;11.40;;;10.40;;
53040;SDS011;39326;42.650;23.248;2023-04-09T10:05:37;10.30;;;9.50;;
53040;SDS011;39326;42.650;23.248;2023-04-09T10:08:05;7.80;;;7.00;;
53040;SDS011;39326;42.650;23.248;2023-04-09T10:10:32;9.73;;;8.83;;
53040;SDS011;39326;42.650;23.248;2023-04-09T10:12:57;11.13;;;10.23;;
53040;SDS011;39326;42.650;23.248;2023-04-09T10:15:24;10.70;;;9.70;;
53040;SDS011;39326;42.650;23.248;2023-04-09T10:17:52;10.33;;;9.47;;
53040;SDS011;39326;42.650;23.248;2023-04-09T10:20:21;10.03;;;9.20;;
53040;SDS011;39326;42.650;23.248;2023-04-09T10:22:52;10.80;;;9.73;;
53040;SDS011;39326;42.650;23.248;2023-04-09T10:25:19;11.00;;;10.03;;
53040;SDS011;39326;42.650;23.248;2023-04-09T10:27:44;8.50;;;7.77;;
53040;SDS011;39326;42.650;23.248;2023-04-09T10:30:31;10.73;;;9.93;;
53040;SDS011;39326;42.650;23.248;2023-04-09T10:35:59;7.73;;;7.03;;
53040;SDS011;39326;42.650;23.248;2023-04-09T10:38:38;9.17;;;8.43;;
53040;SDS011;39326;42.650;23.248;2023-04-09T10:41:09;9.37;;;8.53;;
53040;SDS011;39326;42.650;23.248;2023-04-09T10:43:45;8.33;;;7.63;;
53040;SDS011;39326;42.650;23.248;2023-04-09T10:46:24;8.17;;;7.57;;
53040;SDS011;39326;42.650;23.248;2023-04-09T10:49:06;8.40;;;7.70;;
53040;SDS011;39326;42.650;23.248;2023-04-09T10:51:39;8.83;;;8.13;;
53040;SDS011;39326;42.650;23.248;2023-04-09T10:54:34;8.67;;;7.97;;
53040;SDS011;39326;42.650;23.248;2023-04-09T10:59:36;8.20;;;7.57;;
53040;SDS011;39326;42.650;23.248;2023-04-09T11:02:03;7.83;;;7.23;;
53040;SDS011;39326;42.650;23.248;2023-04-09T11:07:32;8.03;;;7.37;;
53040;SDS011;39326;42.650;23.248;2023-04-09T11:10:03;7.07;;;6.40;;
53040;SDS011;39326;42.650;23.248;2023-04-09T11:12:28;8.20;;;7.50;;
53040;SDS011;39326;42.650;23.248;2023-04-09T11:14:54;7.00;;;6.40;;
53040;SDS011;39326;42.650;23.248;2023-04-09T11:17:19;7.77;;;7.17;;
53040;SDS011;39326;42.650;23.248;2023-04-09T11:19:45;7.20;;;6.63;;
53040;SDS011;39326;42.650;23.248;2023-04-09T11:22:11;8.50;;;7.80;;
53040;SDS011;39326;42.650;23.248;2023-04-09T11:24:40;9.77;;;8.87;;
53040;SDS011;39326;42.650;23.248;2023-04-09T11:27:06;11.63;;;10.50;;
53040;SDS011;39326;42.650;23.248;2023-04-09T11:29:33;11.87;;;10.97;;
53040;SDS011;39326;42.650;23.248;2023-04-09T11:31:59;11.73;;;10.63;;
53040;SDS011;39326;42.650;23.248;2023-04-09T11:34:28;12.90;;;11.70;;
53040;SDS011;39326;42.650;23.248;2023-04-09T11:36:53;15.27;;;12.87;;
53040;SDS011;39326;42.650;23.248;2023-04-09T11:39:19;14.57;;;13.07;;
53040;SDS011;39326;42.650;23.248;2023-04-09T11:41:45;13.77;;;12.47;;
53040;SDS011;39326;42.650;23.248;2023-04-09T11:44:10;13.70;;;12.37;;
53040;SDS011;39326;42.650;23.248;2023-04-09T11:46:37;14.73;;;12.77;;
53040;SDS011;39326;42.650;23.248;2023-04-09T11:49:03;12.97;;;11.87;;
53040;SDS011;39326;42.650;23.248;2023-04-09T11:51:29;11.32;;;10.23;;
53040;SDS011;39326;42.650;23.248;2023-04-09T11:54:04;11.57;;;10.47;;
53040;SDS011;39326;42.650;23.248;2023-04-09T11:56:30;10.33;;;9.27;;
53040;SDS011;39326;42.650;23.248;2023-04-09T11:58:56;7.10;;;6.50;;
53040;SDS011;39326;42.650;23.248;2023-04-09T12:01:22;6.50;;;6.00;;
53040;SDS011;39326;42.650;23.248;2023-04-09T12:03:53;6.63;;;6.03;;
53040;SDS011;39326;42.650;23.248;2023-04-09T12:06:20;6.70;;;6.13;;
53040;SDS011;39326;42.650;23.248;2023-04-09T12:08:58;7.27;;;6.67;;
53040;SDS011;39326;42.650;23.248;2023-04-09T12:11:27;6.33;;;5.83;;
53040;SDS011;39326;42.650;23.248;2023-04-09T12:14:00;6.50;;;5.90;;
53040;SDS011;39326;42.650;23.248;2023-04-09T12:16:30;6.87;;;6.37;;
53040;SDS011;39326;42.650;23.248;2023-04-09T12:18:59;6.93;;;6.43;;
53040;SDS011;39326;42.650;23.248;2023-04-09T12:21:47;6.50;;;6.00;;
53040;SDS011;39326;42.650;23.248;2023-04-09T12:24:19;6.97;;;6.47;;
53040;SDS011;39326;42.650;23.248;2023-04-09T12:26:47;6.53;;;5.93;;
53040;SDS011;39326;42.650;23.248;2023-04-09T12:29:13;6.83;;;6.23;;
53040;SDS011;39326;42.650;23.248;2023-04-09T12:31:39;5.70;;;5.30;;
53040;SDS011;39326;42.650;23.248;2023-04-09T12:34:05;6.73;;;6.23;;
53040;SDS011;39326;42.650;23.248;2023-04-09T12:36:31;6.07;;;5.57;;
53040;SDS011;39326;42.650;23.248;2023-04-09T12:38:56;5.53;;;5.13;;
53040;SDS011;39326;42.650;23.248;2023-04-09T12:41:22;9.13;;;8.30;;
53040;SDS011;39326;42.650;23.248;2023-04-09T12:43:47;5.82;;;5.43;;
53040;SDS011;39326;42.650;23.248;2023-04-09T12:46:13;5.60;;;5.20;;
53040;SDS011;39326;42.650;23.248;2023-04-09T12:48:38;5.20;;;4.80;;
53040;SDS011;39326;42.650;23.248;2023-04-09T12:51:04;5.50;;;5.10;;
53040;SDS011;39326;42.650;23.248;2023-04-09T12:53:30;5.67;;;5.27;;
53040;SDS011;39326;42.650;23.248;2023-04-09T12:55:56;6.10;;;5.70;;
53040;SDS011;39326;42.650;23.248;2023-04-09T12:58:22;5.77;;;5.27;;
53040;SDS011;39326;42.650;23.248;2023-04-09T13:00:47;5.63;;;5.23;;
53040;SDS011;39326;42.650;23.248;2023-04-09T13:03:13;4.73;;;4.43;;
53040;SDS011;39326;42.650;23.248;2023-04-09T13:05:40;5.83;;;5.33;;
53040;SDS011;39326;42.650;23.248;2023-04-09T13:08:06;6.40;;;5.90;;
53040;SDS011;39326;42.650;23.248;2023-04-09T13:10:32;5.83;;;5.33;;
53040;SDS011;39326;42.650;23.248;2023-04-09T13:12:58;5.50;;;5.10;;
53040;SDS011;39326;42.650;23.248;2023-04-09T13:15:23;5.20;;;4.80;;
53040;SDS011;39326;42.650;23.248;2023-04-09T13:17:49;5.97;;;5.47;;
53040;SDS011;39326;42.650;23.248;2023-04-09T13:20:14;5.70;;;5.30;;
53040;SDS011;39326;42.650;23.248;2023-04-09T13:22:40;6.13;;;5.47;;
53040;SDS011;39326;42.650;23.248;2023-04-09T13:25:05;6.10;;;5.60;;
53040;SDS011;39326;42.650;23.248;2023-04-09T13:27:31;5.77;;;5.27;;
53040;SDS011;39326;42.650;23.248;2023-04-09T13:29:56;7.10;;;6.23;;
53040;SDS011;39326;42.650;23.248;2023-04-09T13:32:22;7.43;;;6.73;;
53040;SDS011;39326;42.650;23.248;2023-04-09T13:34:48;6.80;;;6.20;;
53040;SDS011;39326;42.650;23.248;2023-04-09T13:37:14;6.27;;;5.77;;
53040;SDS011;39326;42.650;23.248;2023-04-09T13:39:39;6.63;;;5.50;;
53040;SDS011;39326;42.650;23.248;2023-04-09T13:42:05;4.90;;;4.50;;
53040;SDS011;39326;42.650;23.248;2023-04-09T13:44:30;5.97;;;5.50;;
53040;SDS011;39326;42.650;23.248;2023-04-09T13:46:56;6.57;;;6.07;;
53040;SDS011;39326;42.650;23.248;2023-04-09T13:49:22;5.47;;;5.07;;
53040;SDS011;39326;42.650;23.248;2023-04-09T13:51:48;5.40;;;5.00;;
53040;SDS011;39326;42.650;23.248;2023-04-09T13:54:15;6.03;;;5.60;;
53040;SDS011;39326;42.650;23.248;2023-04-09T13:56:40;5.57;;;5.10;;
53040;SDS011;39326;42.650;23.248;2023-04-09T13:59:06;5.47;;;5.07;;
53040;SDS011;39326;42.650;23.248;2023-04-09T14:01:31;5.70;;;5.30;;
53040;SDS011;39326;42.650;23.248;2023-04-09T14:03:57;5.30;;;4.93;;
53040;SDS011;39326;42.650;23.248;2023-04-09T14:06:23;5.73;;;5.33;;
53040;SDS011;39326;42.650;23.248;2023-04-09T14:08:48;5.63;;;5.13;;
53040;SDS011;39326;42.650;23.248;2023-04-09T14:11:13;5.90;;;5.50;;
53040;SDS011;39326;42.650;23.248;2023-04-09T14:13:40;5.33;;;4.93;;
53040;SDS011;39326;42.650;23.248;2023-04-09T14:16:06;6.33;;;5.83;;
53040;SDS011;39326;42.650;23.248;2023-04-09T14:18:32;9.27;;;8.37;;
53040;SDS011;39326;42.650;23.248;2023-04-09T14:20:58;11.73;;;10.77;;
53040;SDS011;39326;42.650;23.248;2023-04-09T14:23:27;11.50;;;10.40;;
53040;SDS011;39326;42.650;23.248;2023-04-09T14:25:52;12.63;;;11.53;;
53040;SDS011;39326;42.650;23.248;2023-04-09T14:28:18;12.57;;;11.47;;
53040;SDS011;39326;42.650;23.248;2023-04-09T14:30:43;11.82;;;10.90;;
53040;SDS011;39326;42.650;23.248;2023-04-09T14:33:09;12.00;;;11.10;;
53040;SDS011;39326;42.650;23.248;2023-04-09T14:35:35;12.30;;;11.30;;
53040;SDS011;39326;42.650;23.248;2023-04-09T14:38:00;12.33;;;11.33;;
53040;SDS011;39326;42.650;23.248;2023-04-09T14:40:32;13.60;;;12.40;;
53040;SDS011;39326;42.650;23.248;2023-04-09T14:42:58;10.97;;;10.10;;
53040;SDS011;39326;42.650;23.248;2023-04-09T14:45:24;12.00;;;10.90;;